CPX429 Details

Departure: Portland International Jetport (KPWM)
Arrival: Washington Dulles International Airport (KIAD)
Route: NUBLE3 BAF HYPER7
Notes: LOBSTER KING


Current Weather Information
KPWM 252351Z 28008KT 10SM CLR 02/M17 A3005 RMK AO2 SLP177 T00171167 10067 20017 53018
KIAD 252352Z 02011KT 9SM BKN013 OVC050 08/06 A3003 RMK AO2 SLP171 60000 T00830056 10150 20083 51019